createdAt,value
2019-03-23T00:03:58.620Z,102130.81
2019-03-23T00:10:05.433Z,102129.74
2019-03-23T00:16:11.991Z,102139.08
2019-03-23T00:22:18.546Z,102148.75
2019-03-23T00:28:25.244Z,102145.86
2019-03-23T00:34:32.114Z,102157.55
2019-03-23T00:40:38.697Z,102158.63
2019-03-23T00:46:45.674Z,102160.20
2019-03-23T00:52:52.405Z,102173.55
2019-03-23T00:58:59.156Z,102182.95
2019-03-23T01:05:07.048Z,102190.77
2019-03-23T01:11:14.206Z,102202.95
2019-03-23T01:17:20.858Z,102208.31
2019-03-23T01:23:27.625Z,102212.50
2019-03-23T01:29:34.352Z,102213.44
2019-03-23T01:35:41.080Z,102206.95
2019-03-23T01:41:47.920Z,102207.05
2019-03-23T01:47:54.492Z,102216.06
2019-03-23T01:54:01.280Z,102222.61
2019-03-23T02:00:08.765Z,102226.89
2019-03-23T02:06:15.305Z,102233.25
2019-03-23T02:12:21.915Z,102246.67
2019-03-23T02:18:28.521Z,102241.37
2019-03-23T02:24:35.440Z,102250.92
2019-03-23T02:30:42.079Z,102258.25
2019-03-23T02:36:48.648Z,102268.27
2019-03-23T02:42:55.196Z,102268.19
2019-03-23T02:49:01.756Z,102278.27
2019-03-23T02:55:08.822Z,102283.45
2019-03-23T03:01:15.388Z,102278.65
2019-03-23T03:07:21.937Z,102289.29
2019-03-23T03:13:28.508Z,102295.10
2019-03-23T03:19:35.261Z,102290.89
2019-03-23T03:25:42.202Z,102296.17
2019-03-23T03:31:48.910Z,102301.05
2019-03-23T03:37:57.179Z,102301.28
2019-03-23T03:44:03.756Z,102292.72
2019-03-23T03:50:10.973Z,102303.98
2019-03-23T03:56:17.610Z,102307.80
2019-03-23T04:02:24.130Z,102306.19
2019-03-23T04:08:30.758Z,102307.35
2019-03-23T04:14:37.762Z,102311.30
2019-03-23T04:20:44.394Z,102307.50
2019-03-23T04:26:50.944Z,102306.29
2019-03-23T04:32:57.804Z,102317.11
2019-03-23T04:39:05.421Z,102319.75
2019-03-23T04:45:12.502Z,102318.56
2019-03-23T04:51:19.133Z,102320.00
2019-03-23T04:57:25.635Z,102330.56
2019-03-23T05:03:32.300Z,102340.41
2019-03-23T05:09:39.044Z,102331.31
2019-03-23T05:15:45.849Z,102346.98
2019-03-23T05:21:52.377Z,102349.04
2019-03-23T05:27:58.980Z,102344.20
2019-03-23T05:34:05.508Z,102350.97
2019-03-23T05:40:12.440Z,102361.18
2019-03-23T05:46:19.107Z,102367.86
2019-03-23T05:52:25.637Z,102370.13
2019-03-23T05:58:32.219Z,102376.20
2019-03-23T06:04:38.830Z,102397.19
2019-03-23T06:10:45.398Z,102398.25
2019-03-23T06:16:52.021Z,102399.31
2019-03-23T06:22:58.581Z,102398.50
2019-03-23T06:29:05.330Z,102408.41
2019-03-23T06:35:12.103Z,102404.70
2019-03-23T06:41:18.769Z,102410.53
2019-03-23T06:47:25.485Z,102414.84
2019-03-23T06:53:32.066Z,102408.27
2019-03-23T06:59:38.845Z,102410.45
2019-03-23T07:05:45.455Z,102415.33
2019-03-23T07:11:52.115Z,102416.56
2019-03-23T07:17:58.848Z,102411.09
2019-03-23T07:24:05.446Z,102416.52
2019-03-23T07:30:14.585Z,102413.30
2019-03-23T07:36:21.368Z,102415.27
2019-03-23T07:42:27.991Z,102428.85
2019-03-23T07:48:34.522Z,102431.20
2019-03-23T07:54:41.131Z,102436.31
2019-03-23T08:00:47.699Z,102437.34
2019-03-23T08:06:54.508Z,102445.61
2019-03-23T08:13:01.595Z,102434.88
2019-03-23T08:19:08.186Z,102438.58
2019-03-23T08:25:14.782Z,102435.51
2019-03-23T08:31:21.328Z,102439.22
2019-03-23T08:37:27.940Z,102443.58
2019-03-23T08:43:34.564Z,102449.12
2019-03-23T08:49:41.448Z,102446.83
2019-03-23T08:55:48.227Z,102458.41
2019-03-23T09:01:54.885Z,102449.89
2019-03-23T09:08:01.937Z,102450.24
2019-03-23T09:14:08.739Z,102457.81
2019-03-23T09:20:15.408Z,102464.45
2019-03-23T09:26:22.012Z,102460.45
2019-03-23T09:32:28.586Z,102461.69
2019-03-23T09:38:35.209Z,102465.42
2019-03-23T09:44:42.206Z,102467.67
2019-03-23T09:50:48.842Z,102479.86
2019-03-23T09:56:55.598Z,102479.91
2019-03-23T10:03:02.406Z,102482.22
2019-03-23T10:09:09.820Z,102484.39
2019-03-23T10:15:16.470Z,102484.16
2019-03-23T10:21:23.235Z,102485.74
2019-03-23T10:27:29.847Z,102484.58
2019-03-23T10:33:36.587Z,102481.27
2019-03-23T10:39:43.393Z,102481.98
2019-03-23T10:45:50.159Z,102478.41
2019-03-23T10:51:56.862Z,102472.16
2019-03-23T10:58:03.542Z,102471.53
2019-03-23T11:04:10.110Z,102468.25
2019-03-23T11:10:16.946Z,102473.92
2019-03-23T11:16:23.600Z,102474.98
2019-03-23T11:22:30.249Z,102473.40
2019-03-23T11:28:36.817Z,102471.75
2019-03-23T11:34:43.533Z,102475.53
2019-03-23T11:40:54.926Z,102469.59
2019-03-23T11:46:59.081Z,102469.08
2019-03-23T11:53:06.074Z,102466.73
2019-03-23T11:59:12.711Z,102477.81
2019-03-23T12:05:19.307Z,102483.94
2019-03-23T12:11:25.989Z,102485.61
2019-03-23T12:17:32.651Z,102484.64
2019-03-23T12:23:39.257Z,102484.30
2019-03-23T12:29:45.834Z,102478.44
2019-03-23T12:35:52.641Z,102481.94
2019-03-23T12:42:01.003Z,102480.63
2019-03-23T12:48:07.658Z,102486.45
2019-03-23T12:54:14.322Z,102481.64
2019-03-23T13:00:21.090Z,102476.23
2019-03-23T13:06:27.693Z,102478.34
2019-03-23T13:12:34.307Z,102475.30
2019-03-23T13:18:41.051Z,102479.95
2019-03-23T13:24:47.861Z,102477.26
2019-03-23T13:30:54.438Z,102478.20
2019-03-23T13:37:01.104Z,102484.27
2019-03-23T13:43:07.904Z,102474.10
2019-03-23T13:49:14.484Z,102478.12
2019-03-23T13:55:33.323Z,102477.22
2019-03-23T14:01:40.370Z,102471.86
2019-03-23T14:07:47.193Z,102471.51
2019-03-23T14:13:53.919Z,102471.11
2019-03-23T14:20:00.644Z,102475.94
2019-03-23T14:26:07.468Z,102470.47
2019-03-23T14:32:14.191Z,102464.67
2019-03-23T14:38:20.774Z,102473.80
2019-03-23T14:44:27.642Z,102471.48
2019-03-23T14:50:34.337Z,102474.02
2019-03-23T14:56:40.917Z,102473.19
2019-03-23T15:02:47.957Z,102484.73
2019-03-23T15:08:54.640Z,102484.72
2019-03-23T15:15:01.301Z,102476.71
2019-03-23T15:21:07.966Z,102482.94
2019-03-23T15:27:14.854Z,102474.03
2019-03-23T15:33:21.580Z,102476.70
2019-03-23T15:39:28.261Z,102477.04
2019-03-23T15:45:35.064Z,102480.53
2019-03-23T15:51:41.762Z,102481.20
2019-03-23T15:57:48.437Z,102482.52
2019-03-23T16:03:55.062Z,102482.75
2019-03-23T16:10:01.775Z,102483.50
2019-03-23T16:16:08.399Z,102486.62
2019-03-23T16:22:15.328Z,102478.59
2019-03-23T16:28:21.920Z,102476.91
2019-03-23T16:34:28.529Z,102474.62
2019-03-23T16:40:35.312Z,102467.58
2019-03-23T16:46:42.097Z,102468.48
2019-03-23T16:52:48.808Z,102473.34
2019-03-23T16:58:55.614Z,102467.11
2019-03-23T17:05:02.289Z,102463.20
2019-03-23T17:11:08.937Z,102463.06
2019-03-23T17:17:15.774Z,102463.24
2019-03-23T17:23:22.359Z,102463.16
2019-03-23T17:29:28.946Z,102461.39
2019-03-23T17:35:35.551Z,102467.56
2019-03-23T17:41:42.307Z,102476.67
2019-03-23T17:47:48.891Z,102483.06
2019-03-23T17:53:58.954Z,102479.88
2019-03-23T18:00:03.993Z,102478.36
2019-03-23T18:06:10.645Z,102480.08
2019-03-23T18:12:17.553Z,102492.69
2019-03-23T18:18:24.706Z,102498.86
2019-03-23T18:24:31.497Z,102505.20
2019-03-23T18:30:43.117Z,102499.44
2019-03-23T18:36:50.129Z,102503.73
2019-03-23T18:42:57.078Z,102508.22
2019-03-23T18:49:04.015Z,102512.53
2019-03-23T18:55:10.844Z,102503.69
2019-03-23T19:01:17.659Z,102516.09
2019-03-23T19:07:24.418Z,102517.42
2019-03-23T19:13:37.907Z,102518.70
2019-03-23T19:19:39.782Z,102518.14
2019-03-23T19:25:46.461Z,102529.66
2019-03-23T19:31:53.934Z,102519.22
2019-03-23T19:38:02.529Z,102527.11
2019-03-23T19:44:09.267Z,102519.89
2019-03-23T19:50:16.165Z,102529.45
2019-03-23T19:56:22.997Z,102528.13
2019-03-23T20:02:29.840Z,102529.05
2019-03-23T20:08:36.749Z,102541.77
2019-03-23T20:14:43.297Z,102542.92
2019-03-23T20:20:49.930Z,102538.56
2019-03-23T20:26:56.579Z,102538.13
2019-03-23T20:33:03.470Z,102541.20
2019-03-23T20:39:10.313Z,102538.83
2019-03-23T20:45:28.941Z,102533.55
2019-03-23T20:51:35.604Z,102532.23
2019-03-23T20:57:42.526Z,102530.24
2019-03-23T21:03:49.542Z,102522.16
2019-03-23T21:09:56.140Z,102527.44
2019-03-23T21:16:02.806Z,102516.30
2019-03-23T21:22:09.661Z,102511.77
2019-03-23T21:28:16.779Z,102514.67
2019-03-23T21:34:25.980Z,102494.69
2019-03-23T21:40:34.984Z,102498.76
2019-03-23T21:46:41.276Z,102484.20
2019-03-23T21:52:47.981Z,102492.94
2019-03-23T21:58:54.603Z,102487.58
2019-03-23T22:05:01.487Z,102478.29
2019-03-23T22:11:08.028Z,102483.62
2019-03-23T22:17:14.786Z,102479.32
2019-03-23T22:23:21.689Z,102478.53
2019-03-23T22:29:28.284Z,102483.27
2019-03-23T22:35:34.882Z,102485.38
2019-03-23T22:41:41.725Z,102474.86
2019-03-23T22:47:48.672Z,102477.45
2019-03-23T22:53:55.547Z,102465.94
2019-03-23T23:00:02.211Z,102461.00
2019-03-23T23:06:09.002Z,102460.08
2019-03-23T23:12:15.633Z,102454.31
2019-03-23T23:18:22.223Z,102452.89
2019-03-23T23:24:28.829Z,102461.23
2019-03-23T23:30:35.496Z,102454.50
2019-03-23T23:36:42.388Z,102453.28
2019-03-23T23:42:48.959Z,102451.81
2019-03-23T23:48:55.545Z,102447.80
2019-03-23T23:55:02.122Z,102438.42
